createdAt,value
2022-09-05T00:04:10.549Z,53.49
2022-09-05T00:09:53.148Z,53.23
2022-09-05T00:15:18.891Z,52.97
2022-09-05T00:24:33.058Z,52.98
2022-09-05T00:26:09.783Z,52.88
2022-09-05T00:31:53.729Z,52.81
2022-09-05T00:36:56.019Z,52.70
2022-09-05T00:42:05.370Z,52.49
2022-09-05T00:47:15.117Z,52.57
2022-09-05T00:52:26.137Z,52.60
2022-09-05T00:57:49.294Z,52.79
2022-09-05T01:03:09.820Z,52.74
2022-09-05T01:08:32.028Z,52.72
2022-09-05T01:13:46.887Z,53.02
2022-09-05T01:19:01.470Z,53.39
2022-09-05T01:24:30.613Z,53.61
2022-09-05T01:29:44.793Z,53.60
2022-09-05T01:35:01.654Z,54.04
2022-09-05T01:40:20.664Z,54.12
2022-09-05T01:45:37.581Z,54.27
2022-09-05T01:50:49.497Z,54.33
2022-09-05T01:56:24.041Z,54.37
2022-09-05T02:01:37.314Z,54.26
2022-09-05T02:06:47.696Z,54.40
2022-09-05T02:11:57.387Z,54.52
2022-09-05T02:17:44.790Z,54.63
2022-09-05T02:22:44.023Z,54.68
2022-09-05T02:28:03.918Z,54.84
2022-09-05T02:33:21.197Z,55.08
2022-09-05T02:45:03.414Z,55.29
2022-09-05T02:45:21.694Z,55.67
2022-09-05T02:51:47.410Z,55.26
2022-09-05T02:57:41.150Z,55.50
2022-09-05T03:00:56.115Z,55.43
2022-09-05T03:06:06.932Z,55.48
2022-09-05T03:11:50.296Z,55.67
2022-09-05T03:17:34.609Z,55.66
2022-09-05T03:23:08.628Z,55.10
2022-09-05T03:28:50.944Z,55.04
2022-09-05T03:34:39.846Z,55.08
2022-09-05T03:40:16.930Z,55.06
2022-09-05T03:45:36.981Z,55.04
2022-09-05T03:56:27.609Z,55.14
2022-09-05T03:57:15.450Z,54.90
2022-09-05T04:06:58.359Z,55.12
2022-09-05T04:08:23.961Z,55.10
2022-09-05T04:13:04.044Z,55.36
2022-09-05T04:18:25.765Z,55.55
2022-09-05T04:23:48.017Z,56.02
2022-09-05T04:29:02.726Z,56.03
2022-09-05T04:34:21.022Z,56.41
2022-09-05T04:39:28.604Z,56.51
2022-09-05T04:44:38.625Z,56.62
2022-09-05T04:49:44.443Z,56.75
2022-09-05T04:54:53.359Z,56.71
2022-09-05T05:04:23.749Z,56.89
2022-09-05T05:06:16.894Z,56.83
2022-09-05T05:17:54.982Z,56.49
2022-09-05T05:18:06.546Z,56.75
2022-09-05T05:22:08.143Z,56.37
2022-09-05T05:27:20.055Z,56.19
2022-09-05T05:32:45.003Z,55.82
2022-09-05T05:37:54.756Z,55.40
2022-09-05T05:43:16.030Z,55.09
2022-09-05T05:54:03.334Z,53.94
2022-09-05T06:06:14.977Z,54.12
2022-09-05T06:14:59.033Z,53.94
2022-09-05T06:18:01.899Z,53.84
2022-09-05T06:23:40.314Z,53.81
2022-09-05T06:28:57.375Z,53.37
2022-09-05T06:34:33.556Z,53.36
2022-09-05T06:40:01.251Z,53.24
2022-09-05T06:45:28.423Z,53.24
2022-09-05T06:51:09.065Z,52.72
2022-09-05T06:56:30.924Z,52.38
2022-09-05T07:01:59.822Z,51.41
2022-09-05T07:07:10.173Z,50.84
2022-09-05T07:12:18.551Z,50.09
2022-09-05T07:17:44.428Z,48.53
2022-09-05T07:23:38.304Z,48.58
2022-09-05T07:28:30.502Z,48.19
2022-09-05T07:33:39.667Z,47.17
2022-09-05T07:39:02.433Z,47.23
2022-09-05T07:44:22.203Z,47.14
2022-09-05T07:49:31.155Z,47.48
2022-09-05T07:57:01.327Z,45.87
2022-09-05T08:00:25.614Z,45.37
2022-09-05T08:05:40.308Z,45.25
2022-09-05T08:11:23.792Z,44.61
2022-09-05T08:16:16.860Z,43.41
2022-09-05T08:21:27.255Z,42.62
2022-09-05T08:26:38.739Z,41.45
2022-09-05T08:31:46.523Z,40.52
2022-09-05T08:36:52.998Z,39.61
2022-09-05T08:42:25.162Z,39.20
2022-09-05T08:47:45.589Z,40.21
2022-09-05T08:53:28.161Z,40.17
2022-09-05T08:59:27.531Z,39.19
2022-09-05T09:04:39.969Z,38.17
2022-09-05T09:09:59.458Z,38.74
2022-09-05T09:15:06.417Z,38.64
2022-09-05T09:20:22.599Z,38.26
2022-09-05T09:25:33.958Z,37.50
2022-09-05T09:30:41.448Z,35.99
2022-09-05T09:35:53.156Z,35.20
2022-09-05T09:41:23.327Z,35.86
2022-09-05T09:46:39.393Z,34.76
2022-09-05T09:51:55.335Z,33.71
2022-09-05T09:57:21.537Z,33.34
2022-09-05T10:06:00.311Z,33.82
2022-09-05T10:10:52.714Z,33.74
2022-09-05T10:14:50.046Z,32.20
2022-09-05T10:20:28.714Z,32.54
2022-09-05T10:26:01.558Z,31.72
2022-09-05T10:32:31.349Z,32.30
2022-09-05T10:36:41.499Z,31.80
2022-09-05T10:41:49.207Z,31.00
2022-09-05T10:47:04.725Z,30.59
2022-09-05T10:52:18.523Z,30.49
2022-09-05T10:57:34.997Z,29.95
2022-09-05T11:02:47.247Z,27.80
2022-09-05T11:08:01.800Z,27.54
2022-09-05T11:13:16.329Z,27.89
2022-09-05T11:18:55.129Z,28.68
2022-09-05T11:24:00.958Z,29.06
2022-09-05T11:29:08.924Z,30.81
2022-09-05T11:39:46.114Z,30.01
2022-09-05T11:40:41.911Z,28.19
2022-09-05T11:46:15.454Z,26.98
2022-09-05T11:51:58.905Z,28.34
2022-09-05T11:57:33.786Z,27.98
2022-09-05T12:02:55.573Z,26.89
2022-09-05T12:08:09.155Z,26.47
2022-09-05T12:13:33.735Z,26.67
2022-09-05T12:18:44.440Z,27.48
2022-09-05T12:24:58.891Z,26.09
2022-09-05T12:29:35.598Z,25.44
2022-09-05T12:36:03.745Z,25.44
2022-09-05T12:41:38.837Z,23.25
2022-09-05T12:45:47.749Z,21.69
2022-09-05T12:50:58.614Z,21.04
2022-09-05T12:57:29.171Z,21.11
2022-09-05T13:03:13.538Z,20.40
2022-09-05T13:07:01.048Z,20.89
2022-09-05T13:14:47.560Z,20.53
2022-09-05T13:17:44.328Z,19.71
2022-09-05T13:22:50.512Z,20.33
2022-09-05T13:27:59.264Z,21.12
2022-09-05T13:38:12.827Z,21.86
2022-09-05T13:38:49.467Z,22.21
2022-09-05T13:44:00.377Z,23.27
2022-09-05T13:49:26.652Z,23.68
2022-09-05T13:54:37.666Z,22.69
2022-09-05T13:59:44.661Z,24.36
2022-09-05T14:05:29.083Z,25.03
2022-09-05T14:11:07.909Z,23.35
2022-09-05T14:16:19.535Z,23.86
2022-09-05T14:21:24.995Z,25.10
2022-09-05T14:26:31.536Z,25.13
2022-09-05T14:37:35.955Z,25.91
2022-09-05T14:37:44.166Z,26.45
2022-09-05T14:43:17.447Z,26.47
2022-09-05T14:48:53.556Z,25.82
2022-09-05T14:54:01.424Z,25.53
2022-09-05T15:02:43.971Z,23.91
2022-09-05T15:04:46.884Z,24.92
2022-09-05T15:12:17.766Z,25.40
2022-09-05T15:15:35.915Z,25.99
2022-09-05T15:20:42.160Z,27.00
2022-09-05T15:25:48.144Z,27.84
2022-09-05T15:31:04.449Z,27.91
2022-09-05T15:36:13.395Z,28.12
2022-09-05T15:41:20.579Z,28.37
2022-09-05T15:46:29.572Z,28.70
2022-09-05T15:51:48.051Z,28.82
2022-09-05T15:56:54.276Z,29.49
2022-09-05T16:02:00.334Z,28.73
2022-09-05T16:10:36.335Z,29.08
2022-09-05T16:12:33.391Z,27.42
2022-09-05T16:23:15.774Z,26.72
2022-09-05T16:23:39.414Z,26.42
2022-09-05T16:28:39.165Z,26.26
2022-09-05T16:33:43.816Z,26.38
2022-09-05T16:38:52.809Z,27.21
2022-09-05T16:43:59.820Z,27.10
2022-09-05T16:49:12.082Z,29.99
2022-09-05T16:54:25.643Z,30.84
2022-09-05T16:59:31.311Z,32.09
2022-09-05T17:05:03.152Z,33.30
2022-09-05T17:10:12.076Z,34.62
2022-09-05T17:15:17.540Z,35.35
2022-09-05T17:20:23.640Z,35.77
2022-09-05T17:29:35.290Z,36.23
2022-09-05T17:36:41.385Z,36.81
2022-09-05T17:42:12.858Z,37.47
2022-09-05T17:47:35.354Z,38.12
2022-09-05T17:53:26.886Z,38.52
2022-09-05T17:58:49.613Z,38.62
2022-09-05T18:04:08.521Z,38.63
2022-09-05T18:10:12.611Z,38.83
2022-09-05T18:15:22.537Z,39.06
2022-09-05T18:20:33.527Z,39.38
2022-09-05T18:25:48.349Z,39.38
2022-09-05T18:30:52.832Z,39.68
2022-09-05T18:36:35.876Z,39.70
2022-09-05T18:41:41.801Z,39.89
2022-09-05T18:46:49.899Z,40.13
2022-09-05T18:52:00.932Z,40.39
2022-09-05T18:57:26.832Z,40.50
2022-09-05T19:02:50.031Z,40.92
2022-09-05T19:08:04.715Z,40.91
2022-09-05T19:13:15.569Z,41.26
2022-09-05T19:18:26.028Z,41.79
2022-09-05T19:23:33.786Z,41.88
2022-09-05T19:36:59.817Z,42.18
2022-09-05T19:37:12.706Z,42.34
2022-09-05T19:42:01.793Z,42.23
2022-09-05T19:47:38.168Z,42.38
2022-09-05T19:50:29.848Z,43.13
2022-09-05T19:55:37.390Z,43.15
2022-09-05T20:00:42.153Z,43.40
2022-09-05T20:05:51.606Z,42.96
2022-09-05T20:11:02.757Z,43.28
2022-09-05T20:16:05.916Z,43.02
2022-09-05T20:21:13.108Z,43.16
2022-09-05T20:26:19.217Z,43.46
2022-09-05T20:31:27.628Z,43.73
2022-09-05T20:43:10.766Z,43.64
2022-09-05T20:43:30.782Z,44.27
2022-09-05T20:48:43.535Z,44.08
2022-09-05T20:54:27.975Z,44.98
2022-09-05T20:58:31.257Z,45.18
2022-09-05T21:03:40.930Z,45.13
2022-09-05T21:08:50.942Z,45.23
2022-09-05T21:14:03.380Z,46.32
2022-09-05T21:19:06.100Z,46.08
2022-09-05T21:24:16.019Z,45.93
2022-09-05T21:29:32.253Z,46.62
2022-09-05T21:34:45.098Z,46.57
2022-09-05T21:39:59.793Z,46.39
2022-09-05T21:47:43.541Z,46.86
2022-09-05T21:50:31.385Z,46.82
2022-09-05T21:59:32.838Z,47.24
2022-09-05T22:00:59.494Z,47.10
2022-09-05T22:06:04.207Z,47.59
2022-09-05T22:11:14.445Z,48.11
2022-09-05T22:16:17.710Z,48.17
2022-09-05T22:21:32.818Z,48.42
2022-09-05T22:27:11.425Z,48.45
2022-09-05T22:32:08.789Z,48.40
2022-09-05T22:37:14.010Z,48.86
2022-09-05T22:42:18.334Z,48.83
2022-09-05T22:47:21.273Z,48.91
2022-09-05T22:52:24.211Z,48.74
2022-09-05T22:57:28.508Z,49.00
2022-09-05T23:02:31.421Z,49.02
2022-09-05T23:07:34.579Z,49.13
2022-09-05T23:12:38.960Z,49.38
2022-09-05T23:17:41.830Z,49.33
2022-09-05T23:22:44.693Z,49.95
2022-09-05T23:27:49.433Z,49.44
2022-09-05T23:32:53.137Z,49.51
2022-09-05T23:37:56.189Z,50.03
2022-09-05T23:43:01.148Z,49.85
2022-09-05T23:48:04.378Z,49.87
2022-09-05T23:53:07.230Z,49.68
2022-09-05T23:58:12.584Z,49.96
